sensor_id;sensor_type;location;lat;lon;timestamp;P1;durP1;ratioP1;P2;durP2;ratioP2
22388;SDS011;11362;48.102;11.620;2023-03-14T00:01:12;1.17;;;0.90;;
22388;SDS011;11362;48.102;11.620;2023-03-14T00:03:39;2.03;;;1.00;;
22388;SDS011;11362;48.102;11.620;2023-03-14T00:06:05;0.87;;;0.57;;
22388;SDS011;11362;48.102;11.620;2023-03-14T00:08:31;1.13;;;0.97;;
22388;SDS011;11362;48.102;11.620;2023-03-14T00:10:56;0.80;;;0.80;;
22388;SDS011;11362;48.102;11.620;2023-03-14T00:13:22;0.80;;;0.80;;
22388;SDS011;11362;48.102;11.620;2023-03-14T00:15:47;3.23;;;1.00;;
22388;SDS011;11362;48.102;11.620;2023-03-14T00:18:12;1.53;;;0.73;;
22388;SDS011;11362;48.102;11.620;2023-03-14T00:20:37;0.93;;;0.83;;
22388;SDS011;11362;48.102;11.620;2023-03-14T00:23:03;1.50;;;0.97;;
22388;SDS011;11362;48.102;11.620;2023-03-14T00:25:28;1.57;;;0.77;;
22388;SDS011;11362;48.102;11.620;2023-03-14T00:27:53;2.23;;;0.70;;
22388;SDS011;11362;48.102;11.620;2023-03-14T00:30:19;0.80;;;0.70;;
22388;SDS011;11362;48.102;11.620;2023-03-14T00:32:44;0.70;;;0.70;;
22388;SDS011;11362;48.102;11.620;2023-03-14T00:35:09;1.30;;;0.70;;
22388;SDS011;11362;48.102;11.620;2023-03-14T00:37:35;0.83;;;0.73;;
22388;SDS011;11362;48.102;11.620;2023-03-14T00:40:00;1.23;;;0.80;;
22388;SDS011;11362;48.102;11.620;2023-03-14T00:42:25;2.10;;;0.60;;
22388;SDS011;11362;48.102;11.620;2023-03-14T00:44:51;0.70;;;0.70;;
22388;SDS011;11362;48.102;11.620;2023-03-14T00:47:16;0.93;;;0.60;;
22388;SDS011;11362;48.102;11.620;2023-03-14T00:49:41;0.70;;;0.70;;
22388;SDS011;11362;48.102;11.620;2023-03-14T00:52:06;1.00;;;0.80;;
22388;SDS011;11362;48.102;11.620;2023-03-14T00:54:32;0.53;;;0.53;;
22388;SDS011;11362;48.102;11.620;2023-03-14T00:56:57;0.97;;;0.50;;
22388;SDS011;11362;48.102;11.620;2023-03-14T00:59:22;1.87;;;0.80;;
22388;SDS011;11362;48.102;11.620;2023-03-14T01:01:48;0.60;;;0.60;;
22388;SDS011;11362;48.102;11.620;2023-03-14T01:04:13;1.37;;;0.83;;
22388;SDS011;11362;48.102;11.620;2023-03-14T01:06:38;0.83;;;0.83;;
22388;SDS011;11362;48.102;11.620;2023-03-14T01:09:04;0.93;;;0.80;;
22388;SDS011;11362;48.102;11.620;2023-03-14T01:11:31;0.60;;;0.60;;
22388;SDS011;11362;48.102;11.620;2023-03-14T01:13:57;0.73;;;0.67;;
22388;SDS011;11362;48.102;11.620;2023-03-14T01:16:24;0.70;;;0.70;;
22388;SDS011;11362;48.102;11.620;2023-03-14T01:18:51;1.23;;;0.60;;
22388;SDS011;11362;48.102;11.620;2023-03-14T01:21:28;0.90;;;0.53;;
22388;SDS011;11362;48.102;11.620;2023-03-14T01:23:55;1.23;;;0.60;;
22388;SDS011;11362;48.102;11.620;2023-03-14T01:26:23;1.07;;;0.67;;
22388;SDS011;11362;48.102;11.620;2023-03-14T01:28:50;0.60;;;0.60;;
22388;SDS011;11362;48.102;11.620;2023-03-14T01:31:18;0.57;;;0.57;;
22388;SDS011;11362;48.102;11.620;2023-03-14T01:33:43;0.63;;;0.63;;
22388;SDS011;11362;48.102;11.620;2023-03-14T01:36:09;0.60;;;0.60;;
22388;SDS011;11362;48.102;11.620;2023-03-14T01:38:36;0.50;;;0.50;;
22388;SDS011;11362;48.102;11.620;2023-03-14T01:41:02;0.37;;;0.37;;
22388;SDS011;11362;48.102;11.620;2023-03-14T01:43:28;0.60;;;0.53;;
22388;SDS011;11362;48.102;11.620;2023-03-14T01:46:09;0.77;;;0.70;;
22388;SDS011;11362;48.102;11.620;2023-03-14T01:51:45;1.40;;;0.53;;
22388;SDS011;11362;48.102;11.620;2023-03-14T01:57:11;0.77;;;0.60;;
22388;SDS011;11362;48.102;11.620;2023-03-14T01:59:49;0.60;;;0.60;;
22388;SDS011;11362;48.102;11.620;2023-03-14T02:02:19;0.70;;;0.40;;
22388;SDS011;11362;48.102;11.620;2023-03-14T02:04:44;0.57;;;0.57;;
22388;SDS011;11362;48.102;11.620;2023-03-14T02:09:43;0.50;;;0.50;;
22388;SDS011;11362;48.102;11.620;2023-03-14T02:12:09;1.03;;;0.60;;
22388;SDS011;11362;48.102;11.620;2023-03-14T02:14:36;0.40;;;0.40;;
22388;SDS011;11362;48.102;11.620;2023-03-14T02:17:03;0.80;;;0.60;;
22388;SDS011;11362;48.102;11.620;2023-03-14T02:22:30;0.50;;;0.50;;
22388;SDS011;11362;48.102;11.620;2023-03-14T02:27:46;0.60;;;0.40;;
22388;SDS011;11362;48.102;11.620;2023-03-14T02:30:17;0.30;;;0.30;;
22388;SDS011;11362;48.102;11.620;2023-03-14T02:32:46;0.57;;;0.57;;
22388;SDS011;11362;48.102;11.620;2023-03-14T02:35:18;0.47;;;0.37;;
22388;SDS011;11362;48.102;11.620;2023-03-14T02:37:47;0.40;;;0.40;;
22388;SDS011;11362;48.102;11.620;2023-03-14T02:40:17;0.40;;;0.40;;
22388;SDS011;11362;48.102;11.620;2023-03-14T02:42:43;0.40;;;0.40;;
22388;SDS011;11362;48.102;11.620;2023-03-14T02:47:33;0.67;;;0.50;;
22388;SDS011;11362;48.102;11.620;2023-03-14T02:50:02;0.20;;;0.20;;
22388;SDS011;11362;48.102;11.620;2023-03-14T02:52:31;1.07;;;0.47;;
22388;SDS011;11362;48.102;11.620;2023-03-14T02:54:56;1.53;;;0.50;;
22388;SDS011;11362;48.102;11.620;2023-03-14T02:57:22;0.37;;;0.37;;
22388;SDS011;11362;48.102;11.620;2023-03-14T02:59:47;0.23;;;0.23;;
22388;SDS011;11362;48.102;11.620;2023-03-14T03:02:12;0.30;;;0.30;;
22388;SDS011;11362;48.102;11.620;2023-03-14T03:04:38;0.23;;;0.23;;
22388;SDS011;11362;48.102;11.620;2023-03-14T03:07:03;0.83;;;0.40;;
22388;SDS011;11362;48.102;11.620;2023-03-14T03:09:28;0.30;;;0.30;;
22388;SDS011;11362;48.102;11.620;2023-03-14T03:11:53;0.43;;;0.40;;
22388;SDS011;11362;48.102;11.620;2023-03-14T03:14:19;0.43;;;0.30;;
22388;SDS011;11362;48.102;11.620;2023-03-14T03:16:44;1.83;;;0.30;;
22388;SDS011;11362;48.102;11.620;2023-03-14T03:19:09;0.40;;;0.40;;
22388;SDS011;11362;48.102;11.620;2023-03-14T03:21:35;0.40;;;0.40;;
22388;SDS011;11362;48.102;11.620;2023-03-14T03:24:00;0.30;;;0.30;;
22388;SDS011;11362;48.102;11.620;2023-03-14T03:26:25;1.23;;;0.40;;
22388;SDS011;11362;48.102;11.620;2023-03-14T03:28:51;0.20;;;0.20;;
22388;SDS011;11362;48.102;11.620;2023-03-14T03:31:16;0.40;;;0.40;;
22388;SDS011;11362;48.102;11.620;2023-03-14T03:33:42;0.40;;;0.40;;
22388;SDS011;11362;48.102;11.620;2023-03-14T03:36:07;0.27;;;0.27;;
22388;SDS011;11362;48.102;11.620;2023-03-14T03:38:33;0.30;;;0.30;;
22388;SDS011;11362;48.102;11.620;2023-03-14T03:41:01;0.30;;;0.30;;
22388;SDS011;11362;48.102;11.620;2023-03-14T03:43:27;0.40;;;0.40;;
22388;SDS011;11362;48.102;11.620;2023-03-14T03:45:53;0.40;;;0.40;;
22388;SDS011;11362;48.102;11.620;2023-03-14T03:48:18;0.50;;;0.40;;
22388;SDS011;11362;48.102;11.620;2023-03-14T03:50:44;0.30;;;0.30;;
22388;SDS011;11362;48.102;11.620;2023-03-14T03:53:10;0.40;;;0.40;;
22388;SDS011;11362;48.102;11.620;2023-03-14T03:55:36;0.30;;;0.30;;
22388;SDS011;11362;48.102;11.620;2023-03-14T03:58:01;0.30;;;0.30;;
22388;SDS011;11362;48.102;11.620;2023-03-14T04:00:26;0.40;;;0.40;;
22388;SDS011;11362;48.102;11.620;2023-03-14T04:02:52;0.40;;;0.40;;
22388;SDS011;11362;48.102;11.620;2023-03-14T04:05:17;0.30;;;0.30;;
22388;SDS011;11362;48.102;11.620;2023-03-14T04:07:42;0.53;;;0.40;;
22388;SDS011;11362;48.102;11.620;2023-03-14T04:10:07;0.30;;;0.30;;
22388;SDS011;11362;48.102;11.620;2023-03-14T04:12:33;0.30;;;0.30;;
22388;SDS011;11362;48.102;11.620;2023-03-14T04:14:58;0.40;;;0.40;;
22388;SDS011;11362;48.102;11.620;2023-03-14T04:17:24;0.30;;;0.30;;
22388;SDS011;11362;48.102;11.620;2023-03-14T04:19:49;0.20;;;0.20;;
22388;SDS011;11362;48.102;11.620;2023-03-14T04:22:14;0.20;;;0.20;;
22388;SDS011;11362;48.102;11.620;2023-03-14T04:24:40;0.40;;;0.40;;
22388;SDS011;11362;48.102;11.620;2023-03-14T04:27:05;0.40;;;0.30;;
22388;SDS011;11362;48.102;11.620;2023-03-14T04:29:30;0.40;;;0.40;;
22388;SDS011;11362;48.102;11.620;2023-03-14T04:31:55;0.20;;;0.20;;
22388;SDS011;11362;48.102;11.620;2023-03-14T04:34:21;0.30;;;0.30;;
22388;SDS011;11362;48.102;11.620;2023-03-14T04:36:46;0.20;;;0.20;;
22388;SDS011;11362;48.102;11.620;2023-03-14T04:39:11;0.30;;;0.30;;
22388;SDS011;11362;48.102;11.620;2023-03-14T04:41:36;0.27;;;0.27;;
22388;SDS011;11362;48.102;11.620;2023-03-14T04:44:02;0.20;;;0.20;;
22388;SDS011;11362;48.102;11.620;2023-03-14T04:46:27;0.27;;;0.13;;
22388;SDS011;11362;48.102;11.620;2023-03-14T04:48:52;0.20;;;0.20;;
22388;SDS011;11362;48.102;11.620;2023-03-14T04:51:18;0.53;;;0.30;;
22388;SDS011;11362;48.102;11.620;2023-03-14T04:53:43;0.27;;;0.27;;
22388;SDS011;11362;48.102;11.620;2023-03-14T04:56:08;0.63;;;0.23;;
22388;SDS011;11362;48.102;11.620;2023-03-14T04:58:34;0.10;;;0.10;;
22388;SDS011;11362;48.102;11.620;2023-03-14T05:01:03;0.20;;;0.20;;
22388;SDS011;11362;48.102;11.620;2023-03-14T05:03:29;0.30;;;0.20;;
22388;SDS011;11362;48.102;11.620;2023-03-14T05:05:54;0.30;;;0.30;;
22388;SDS011;11362;48.102;11.620;2023-03-14T05:08:20;0.27;;;0.20;;
22388;SDS011;11362;48.102;11.620;2023-03-14T05:10:50;0.30;;;0.30;;
22388;SDS011;11362;48.102;11.620;2023-03-14T05:13:17;0.10;;;0.10;;
22388;SDS011;11362;48.102;11.620;2023-03-14T05:15:42;0.20;;;0.20;;
22388;SDS011;11362;48.102;11.620;2023-03-14T05:18:07;0.20;;;0.20;;
22388;SDS011;11362;48.102;11.620;2023-03-14T05:20:33;0.10;;;0.10;;
22388;SDS011;11362;48.102;11.620;2023-03-14T05:22:58;0.20;;;0.20;;
22388;SDS011;11362;48.102;11.620;2023-03-14T05:25:23;0.90;;;0.20;;
22388;SDS011;11362;48.102;11.620;2023-03-14T05:27:48;0.53;;;0.30;;
22388;SDS011;11362;48.102;11.620;2023-03-14T05:30:14;0.30;;;0.30;;
22388;SDS011;11362;48.102;11.620;2023-03-14T05:32:39;0.20;;;0.20;;
22388;SDS011;11362;48.102;11.620;2023-03-14T05:35:04;0.20;;;0.20;;
22388;SDS011;11362;48.102;11.620;2023-03-14T05:37:30;0.30;;;0.30;;
22388;SDS011;11362;48.102;11.620;2023-03-14T05:39:55;0.10;;;0.10;;
22388;SDS011;11362;48.102;11.620;2023-03-14T05:42:20;0.10;;;0.10;;
22388;SDS011;11362;48.102;11.620;2023-03-14T05:44:46;0.20;;;0.20;;
22388;SDS011;11362;48.102;11.620;2023-03-14T05:47:11;0.13;;;0.13;;
22388;SDS011;11362;48.102;11.620;2023-03-14T05:49:36;0.20;;;0.20;;
22388;SDS011;11362;48.102;11.620;2023-03-14T05:52:02;0.20;;;0.20;;
22388;SDS011;11362;48.102;11.620;2023-03-14T05:54:27;0.40;;;0.20;;
22388;SDS011;11362;48.102;11.620;2023-03-14T05:56:52;0.20;;;0.20;;
22388;SDS011;11362;48.102;11.620;2023-03-14T05:59:18;0.20;;;0.20;;
22388;SDS011;11362;48.102;11.620;2023-03-14T06:01:43;0.30;;;0.30;;
22388;SDS011;11362;48.102;11.620;2023-03-14T06:04:08;0.10;;;0.10;;
22388;SDS011;11362;48.102;11.620;2023-03-14T06:06:33;0.10;;;0.10;;
22388;SDS011;11362;48.102;11.620;2023-03-14T06:08:59;0.20;;;0.20;;
22388;SDS011;11362;48.102;11.620;2023-03-14T06:11:24;3.33;;;0.17;;
22388;SDS011;11362;48.102;11.620;2023-03-14T06:13:50;3.30;;;0.70;;
22388;SDS011;11362;48.102;11.620;2023-03-14T06:16:15;0.90;;;0.10;;
22388;SDS011;11362;48.102;11.620;2023-03-14T06:18:41;0.67;;;0.30;;
22388;SDS011;11362;48.102;11.620;2023-03-14T06:21:06;5.33;;;0.60;;
22388;SDS011;11362;48.102;11.620;2023-03-14T06:23:32;6.23;;;0.70;;
22388;SDS011;11362;48.102;11.620;2023-03-14T06:25:57;3.33;;;0.50;;
22388;SDS011;11362;48.102;11.620;2023-03-14T06:28:23;2.90;;;0.80;;
22388;SDS011;11362;48.102;11.620;2023-03-14T06:30:48;7.67;;;0.90;;
22388;SDS011;11362;48.102;11.620;2023-03-14T06:33:13;3.73;;;1.00;;
22388;SDS011;11362;48.102;11.620;2023-03-14T06:35:38;4.27;;;0.77;;
22388;SDS011;11362;48.102;11.620;2023-03-14T06:38:04;8.67;;;1.17;;
22388;SDS011;11362;48.102;11.620;2023-03-14T06:40:29;3.47;;;0.60;;
22388;SDS011;11362;48.102;11.620;2023-03-14T06:42:55;7.83;;;1.10;;
22388;SDS011;11362;48.102;11.620;2023-03-14T06:45:20;2.03;;;0.77;;
22388;SDS011;11362;48.102;11.620;2023-03-14T06:47:45;3.83;;;0.90;;
22388;SDS011;11362;48.102;11.620;2023-03-14T06:50:11;4.60;;;0.87;;
22388;SDS011;11362;48.102;11.620;2023-03-14T06:52:36;2.70;;;0.90;;
22388;SDS011;11362;48.102;11.620;2023-03-14T06:55:02;5.00;;;0.80;;
22388;SDS011;11362;48.102;11.620;2023-03-14T06:57:27;3.17;;;0.80;;
22388;SDS011;11362;48.102;11.620;2023-03-14T06:59:53;4.20;;;0.90;;
22388;SDS011;11362;48.102;11.620;2023-03-14T07:02:18;4.80;;;1.00;;
22388;SDS011;11362;48.102;11.620;2023-03-14T07:04:43;3.33;;;1.37;;
22388;SDS011;11362;48.102;11.620;2023-03-14T07:07:08;3.23;;;1.07;;
22388;SDS011;11362;48.102;11.620;2023-03-14T07:09:34;10.30;;;1.87;;
22388;SDS011;11362;48.102;11.620;2023-03-14T07:12:00;11.83;;;1.57;;
22388;SDS011;11362;48.102;11.620;2023-03-14T07:14:25;6.30;;;1.50;;
22388;SDS011;11362;48.102;11.620;2023-03-14T07:16:51;9.70;;;1.93;;
22388;SDS011;11362;48.102;11.620;2023-03-14T07:19:16;19.00;;;2.60;;
22388;SDS011;11362;48.102;11.620;2023-03-14T07:21:41;7.43;;;1.13;;
22388;SDS011;11362;48.102;11.620;2023-03-14T07:24:07;9.43;;;1.23;;
22388;SDS011;11362;48.102;11.620;2023-03-14T07:26:32;12.67;;;1.60;;
22388;SDS011;11362;48.102;11.620;2023-03-14T07:28:58;7.23;;;1.47;;
22388;SDS011;11362;48.102;11.620;2023-03-14T07:31:23;7.57;;;1.30;;
22388;SDS011;11362;48.102;11.620;2023-03-14T07:33:49;10.70;;;1.80;;
22388;SDS011;11362;48.102;11.620;2023-03-14T07:36:14;12.70;;;1.57;;
22388;SDS011;11362;48.102;11.620;2023-03-14T07:38:40;22.30;;;2.00;;
22388;SDS011;11362;48.102;11.620;2023-03-14T07:41:06;14.60;;;2.27;;
22388;SDS011;11362;48.102;11.620;2023-03-14T07:43:32;13.07;;;2.60;;
22388;SDS011;11362;48.102;11.620;2023-03-14T07:45:57;13.27;;;1.90;;
22388;SDS011;11362;48.102;11.620;2023-03-14T07:48:23;12.00;;;1.90;;
22388;SDS011;11362;48.102;11.620;2023-03-14T07:50:48;10.50;;;1.80;;
22388;SDS011;11362;48.102;11.620;2023-03-14T07:53:14;9.53;;;1.70;;
22388;SDS011;11362;48.102;11.620;2023-03-14T07:55:39;9.03;;;1.43;;
22388;SDS011;11362;48.102;11.620;2023-03-14T07:58:05;13.13;;;1.63;;
22388;SDS011;11362;48.102;11.620;2023-03-14T08:00:30;14.60;;;1.93;;
22388;SDS011;11362;48.102;11.620;2023-03-14T08:02:55;12.97;;;1.30;;
22388;SDS011;11362;48.102;11.620;2023-03-14T08:05:20;10.77;;;1.83;;
22388;SDS011;11362;48.102;11.620;2023-03-14T08:07:46;13.77;;;1.80;;
22388;SDS011;11362;48.102;11.620;2023-03-14T08:10:11;6.07;;;1.37;;
22388;SDS011;11362;48.102;11.620;2023-03-14T08:12:36;3.47;;;0.80;;
22388;SDS011;11362;48.102;11.620;2023-03-14T08:15:02;6.60;;;1.30;;
22388;SDS011;11362;48.102;11.620;2023-03-14T08:17:27;8.57;;;1.30;;
22388;SDS011;11362;48.102;11.620;2023-03-14T08:19:52;8.63;;;1.50;;
22388;SDS011;11362;48.102;11.620;2023-03-14T08:22:18;4.60;;;1.27;;
22388;SDS011;11362;48.102;11.620;2023-03-14T08:24:43;6.33;;;1.20;;
22388;SDS011;11362;48.102;11.620;2023-03-14T08:27:08;3.53;;;1.27;;
22388;SDS011;11362;48.102;11.620;2023-03-14T08:29:34;9.90;;;1.00;;
22388;SDS011;11362;48.102;11.620;2023-03-14T08:31:59;11.07;;;1.40;;
22388;SDS011;11362;48.102;11.620;2023-03-14T08:34:24;8.83;;;1.60;;
22388;SDS011;11362;48.102;11.620;2023-03-14T08:36:49;4.63;;;1.10;;
22388;SDS011;11362;48.102;11.620;2023-03-14T08:39:15;8.67;;;1.40;;
22388;SDS011;11362;48.102;11.620;2023-03-14T08:41:40;6.97;;;1.03;;
22388;SDS011;11362;48.102;11.620;2023-03-14T08:44:06;11.23;;;2.30;;
22388;SDS011;11362;48.102;11.620;2023-03-14T08:46:35;25.13;;;3.97;;
22388;SDS011;11362;48.102;11.620;2023-03-14T08:49:00;14.53;;;2.90;;
22388;SDS011;11362;48.102;11.620;2023-03-14T08:51:26;24.87;;;4.33;;
22388;SDS011;11362;48.102;11.620;2023-03-14T08:53:51;17.33;;;3.37;;
22388;SDS011;11362;48.102;11.620;2023-03-14T08:56:16;21.63;;;3.37;;
22388;SDS011;11362;48.102;11.620;2023-03-14T08:58:42;12.70;;;3.63;;
22388;SDS011;11362;48.102;11.620;2023-03-14T09:01:07;28.97;;;4.57;;
22388;SDS011;11362;48.102;11.620;2023-03-14T09:03:34;24.60;;;3.27;;
22388;SDS011;11362;48.102;11.620;2023-03-14T09:06:06;21.33;;;3.47;;
22388;SDS011;11362;48.102;11.620;2023-03-14T09:08:33;16.53;;;3.40;;
22388;SDS011;11362;48.102;11.620;2023-03-14T09:10:59;16.87;;;4.13;;
22388;SDS011;11362;48.102;11.620;2023-03-14T09:13:25;12.30;;;3.03;;
22388;SDS011;11362;48.102;11.620;2023-03-14T09:15:51;8.43;;;3.07;;
22388;SDS011;11362;48.102;11.620;2023-03-14T09:18:17;22.80;;;2.77;;
22388;SDS011;11362;48.102;11.620;2023-03-14T09:20:42;14.87;;;3.27;;
22388;SDS011;11362;48.102;11.620;2023-03-14T09:23:07;17.23;;;3.23;;
22388;SDS011;11362;48.102;11.620;2023-03-14T09:25:32;16.13;;;3.00;;
22388;SDS011;11362;48.102;11.620;2023-03-14T09:27:58;17.13;;;2.50;;
22388;SDS011;11362;48.102;11.620;2023-03-14T09:30:23;13.47;;;3.17;;
22388;SDS011;11362;48.102;11.620;2023-03-14T09:32:48;16.53;;;2.77;;
22388;SDS011;11362;48.102;11.620;2023-03-14T09:35:13;19.17;;;3.67;;
22388;SDS011;11362;48.102;11.620;2023-03-14T09:37:39;18.80;;;2.90;;
22388;SDS011;11362;48.102;11.620;2023-03-14T09:40:04;13.60;;;2.80;;
22388;SDS011;11362;48.102;11.620;2023-03-14T09:42:30;13.37;;;2.40;;
22388;SDS011;11362;48.102;11.620;2023-03-14T09:47:26;11.33;;;3.90;;
22388;SDS011;11362;48.102;11.620;2023-03-14T09:49:52;16.07;;;3.43;;
22388;SDS011;11362;48.102;11.620;2023-03-14T09:52:22;8.83;;;2.47;;
22388;SDS011;11362;48.102;11.620;2023-03-14T09:54:52;7.77;;;2.77;;
22388;SDS011;11362;48.102;11.620;2023-03-14T09:57:23;8.90;;;2.27;;
22388;SDS011;11362;48.102;11.620;2023-03-14T09:59:50;9.93;;;2.47;;
22388;SDS011;11362;48.102;11.620;2023-03-14T10:02:23;9.67;;;2.67;;
22388;SDS011;11362;48.102;11.620;2023-03-14T10:04:51;3.90;;;1.50;;
22388;SDS011;11362;48.102;11.620;2023-03-14T10:07:19;7.57;;;1.73;;
22388;SDS011;11362;48.102;11.620;2023-03-14T10:09:54;9.10;;;1.90;;
22388;SDS011;11362;48.102;11.620;2023-03-14T10:12:20;5.10;;;1.77;;
22388;SDS011;11362;48.102;11.620;2023-03-14T10:14:56;9.13;;;2.30;;
22388;SDS011;11362;48.102;11.620;2023-03-14T10:17:21;8.03;;;2.33;;
22388;SDS011;11362;48.102;11.620;2023-03-14T10:22:23;5.53;;;1.60;;
22388;SDS011;11362;48.102;11.620;2023-03-14T10:24:52;4.07;;;1.40;;
22388;SDS011;11362;48.102;11.620;2023-03-14T10:27:20;4.43;;;1.53;;
22388;SDS011;11362;48.102;11.620;2023-03-14T10:29:58;4.20;;;1.30;;
22388;SDS011;11362;48.102;11.620;2023-03-14T10:32:33;2.57;;;1.13;;
22388;SDS011;11362;48.102;11.620;2023-03-14T10:35:07;3.73;;;1.67;;
22388;SDS011;11362;48.102;11.620;2023-03-14T10:37:53;2.97;;;1.10;;
22388;SDS011;11362;48.102;11.620;2023-03-14T10:40:24;6.43;;;1.73;;
22388;SDS011;11362;48.102;11.620;2023-03-14T10:42:53;7.03;;;1.77;;
22388;SDS011;11362;48.102;11.620;2023-03-14T10:45:28;8.50;;;2.30;;
22388;SDS011;11362;48.102;11.620;2023-03-14T10:47:58;4.40;;;1.60;;
22388;SDS011;11362;48.102;11.620;2023-03-14T10:50:31;5.37;;;1.57;;
22388;SDS011;11362;48.102;11.620;2023-03-14T10:52:59;4.87;;;1.30;;
22388;SDS011;11362;48.102;11.620;2023-03-14T10:55:27;3.57;;;1.30;;
22388;SDS011;11362;48.102;11.620;2023-03-14T10:57:52;5.53;;;2.37;;
22388;SDS011;11362;48.102;11.620;2023-03-14T11:00:19;5.73;;;1.43;;
22388;SDS011;11362;48.102;11.620;2023-03-14T11:08:54;2.23;;;1.00;;
22388;SDS011;11362;48.102;11.620;2023-03-14T11:13:47;3.63;;;1.30;;
22388;SDS011;11362;48.102;11.620;2023-03-14T11:24:41;2.87;;;1.20;;
22388;SDS011;11362;48.102;11.620;2023-03-14T11:27:28;2.57;;;0.90;;
22388;SDS011;11362;48.102;11.620;2023-03-14T11:32:55;2.97;;;1.30;;
22388;SDS011;11362;48.102;11.620;2023-03-14T11:35:30;2.70;;;1.27;;
22388;SDS011;11362;48.102;11.620;2023-03-14T11:38:02;2.47;;;1.00;;
22388;SDS011;11362;48.102;11.620;2023-03-14T11:40:36;3.87;;;0.97;;
22388;SDS011;11362;48.102;11.620;2023-03-14T11:45:39;3.80;;;0.70;;
22388;SDS011;11362;48.102;11.620;2023-03-14T11:48:10;2.33;;;1.00;;
22388;SDS011;11362;48.102;11.620;2023-03-14T11:50:42;1.57;;;0.80;;
22388;SDS011;11362;48.102;11.620;2023-03-14T11:53:11;1.67;;;0.77;;
22388;SDS011;11362;48.102;11.620;2023-03-14T11:55:44;2.30;;;1.10;;
22388;SDS011;11362;48.102;11.620;2023-03-14T11:58:26;1.77;;;1.03;;
22388;SDS011;11362;48.102;11.620;2023-03-14T12:00:54;1.73;;;1.00;;
22388;SDS011;11362;48.102;11.620;2023-03-14T12:06:20;3.00;;;0.87;;
22388;SDS011;11362;48.102;11.620;2023-03-14T12:08:50;1.57;;;1.00;;
22388;SDS011;11362;48.102;11.620;2023-03-14T12:13:53;2.43;;;0.90;;
22388;SDS011;11362;48.102;11.620;2023-03-14T12:18:47;2.63;;;0.93;;
22388;SDS011;11362;48.102;11.620;2023-03-14T12:21:13;0.97;;;0.67;;
22388;SDS011;11362;48.102;11.620;2023-03-14T12:28:51;2.23;;;0.87;;
22388;SDS011;11362;48.102;11.620;2023-03-14T12:31:40;1.07;;;0.77;;
22388;SDS011;11362;48.102;11.620;2023-03-14T12:39:13;1.13;;;0.60;;
22388;SDS011;11362;48.102;11.620;2023-03-14T12:42:10;2.83;;;0.90;;
22388;SDS011;11362;48.102;11.620;2023-03-14T12:44:47;0.70;;;0.70;;
22388;SDS011;11362;48.102;11.620;2023-03-14T12:49:49;0.50;;;0.50;;
22388;SDS011;11362;48.102;11.620;2023-03-14T12:52:18;0.70;;;0.70;;
22388;SDS011;11362;48.102;11.620;2023-03-14T12:54:57;0.70;;;0.40;;
22388;SDS011;11362;48.102;11.620;2023-03-14T12:57:38;0.60;;;0.60;;
22388;SDS011;11362;48.102;11.620;2023-03-14T13:00:16;2.07;;;0.73;;
22388;SDS011;11362;48.102;11.620;2023-03-14T13:02:44;0.50;;;0.50;;
22388;SDS011;11362;48.102;11.620;2023-03-14T13:05:12;1.27;;;0.70;;
22388;SDS011;11362;48.102;11.620;2023-03-14T13:10:19;0.50;;;0.50;;
22388;SDS011;11362;48.102;11.620;2023-03-14T13:12:51;1.40;;;0.60;;
22388;SDS011;11362;48.102;11.620;2023-03-14T13:15:27;1.53;;;0.70;;
22388;SDS011;11362;48.102;11.620;2023-03-14T13:20:45;0.40;;;0.40;;
22388;SDS011;11362;48.102;11.620;2023-03-14T13:23:34;0.90;;;0.50;;
22388;SDS011;11362;48.102;11.620;2023-03-14T13:26:01;0.80;;;0.50;;
22388;SDS011;11362;48.102;11.620;2023-03-14T13:28:27;1.70;;;0.60;;
22388;SDS011;11362;48.102;11.620;2023-03-14T13:30:55;1.50;;;0.70;;
22388;SDS011;11362;48.102;11.620;2023-03-14T13:33:23;0.80;;;0.43;;
22388;SDS011;11362;48.102;11.620;2023-03-14T13:36:02;0.60;;;0.50;;
22388;SDS011;11362;48.102;11.620;2023-03-14T13:38:31;2.30;;;0.50;;
22388;SDS011;11362;48.102;11.620;2023-03-14T13:40:58;5.60;;;1.23;;
22388;SDS011;11362;48.102;11.620;2023-03-14T13:43:40;4.17;;;1.00;;
22388;SDS011;11362;48.102;11.620;2023-03-14T13:46:12;3.07;;;0.97;;
22388;SDS011;11362;48.102;11.620;2023-03-14T13:48:44;8.03;;;1.13;;
22388;SDS011;11362;48.102;11.620;2023-03-14T13:51:13;6.27;;;1.10;;
22388;SDS011;11362;48.102;11.620;2023-03-14T13:53:44;6.47;;;1.10;;
22388;SDS011;11362;48.102;11.620;2023-03-14T13:56:11;7.20;;;1.07;;
22388;SDS011;11362;48.102;11.620;2023-03-14T13:58:38;5.53;;;1.33;;
22388;SDS011;11362;48.102;11.620;2023-03-14T14:01:05;21.17;;;2.10;;
22388;SDS011;11362;48.102;11.620;2023-03-14T14:03:37;9.97;;;1.40;;
22388;SDS011;11362;48.102;11.620;2023-03-14T14:06:06;3.43;;;1.13;;
22388;SDS011;11362;48.102;11.620;2023-03-14T14:08:35;6.17;;;1.23;;
22388;SDS011;11362;48.102;11.620;2023-03-14T14:11:05;5.33;;;1.30;;
22388;SDS011;11362;48.102;11.620;2023-03-14T14:13:31;10.00;;;1.23;;
22388;SDS011;11362;48.102;11.620;2023-03-14T14:15:58;2.70;;;1.00;;
22388;SDS011;11362;48.102;11.620;2023-03-14T14:18:26;4.80;;;1.20;;
22388;SDS011;11362;48.102;11.620;2023-03-14T14:20:53;2.27;;;0.80;;
22388;SDS011;11362;48.102;11.620;2023-03-14T14:23:20;6.43;;;1.50;;
22388;SDS011;11362;48.102;11.620;2023-03-14T14:25:48;7.27;;;0.87;;
22388;SDS011;11362;48.102;11.620;2023-03-14T14:28:27;6.57;;;1.37;;
22388;SDS011;11362;48.102;11.620;2023-03-14T14:33:40;6.83;;;1.03;;
22388;SDS011;11362;48.102;11.620;2023-03-14T14:39:17;2.27;;;0.90;;
22388;SDS011;11362;48.102;11.620;2023-03-14T14:41:44;1.60;;;0.83;;
22388;SDS011;11362;48.102;11.620;2023-03-14T14:44:13;5.67;;;0.90;;
22388;SDS011;11362;48.102;11.620;2023-03-14T14:46:43;1.43;;;0.77;;
22388;SDS011;11362;48.102;11.620;2023-03-14T14:49:10;4.53;;;0.90;;
22388;SDS011;11362;48.102;11.620;2023-03-14T14:51:39;2.50;;;0.60;;
22388;SDS011;11362;48.102;11.620;2023-03-14T14:54:18;2.00;;;0.83;;
22388;SDS011;11362;48.102;11.620;2023-03-14T14:56:51;2.10;;;0.90;;
22388;SDS011;11362;48.102;11.620;2023-03-14T14:59:22;2.50;;;0.60;;
22388;SDS011;11362;48.102;11.620;2023-03-14T15:01:50;4.87;;;0.50;;
22388;SDS011;11362;48.102;11.620;2023-03-14T15:04:21;3.37;;;1.27;;
22388;SDS011;11362;48.102;11.620;2023-03-14T15:06:47;2.23;;;0.80;;
22388;SDS011;11362;48.102;11.620;2023-03-14T15:09:14;1.93;;;0.70;;
22388;SDS011;11362;48.102;11.620;2023-03-14T15:11:40;2.87;;;0.67;;
22388;SDS011;11362;48.102;11.620;2023-03-14T15:14:05;8.23;;;1.70;;
22388;SDS011;11362;48.102;11.620;2023-03-14T15:16:30;23.43;;;1.73;;
22388;SDS011;11362;48.102;11.620;2023-03-14T15:18:58;20.10;;;2.50;;
22388;SDS011;11362;48.102;11.620;2023-03-14T15:21:25;10.33;;;1.67;;
22388;SDS011;11362;48.102;11.620;2023-03-14T15:23:52;12.73;;;1.67;;
22388;SDS011;11362;48.102;11.620;2023-03-14T15:26:18;12.83;;;2.40;;
22388;SDS011;11362;48.102;11.620;2023-03-14T15:28:45;12.00;;;1.90;;
22388;SDS011;11362;48.102;11.620;2023-03-14T15:31:11;10.60;;;2.50;;
22388;SDS011;11362;48.102;11.620;2023-03-14T15:33:37;9.13;;;2.53;;
22388;SDS011;11362;48.102;11.620;2023-03-14T15:36:03;11.30;;;2.40;;
22388;SDS011;11362;48.102;11.620;2023-03-14T15:38:29;11.23;;;1.93;;
22388;SDS011;11362;48.102;11.620;2023-03-14T15:40:55;12.07;;;2.47;;
22388;SDS011;11362;48.102;11.620;2023-03-14T15:43:20;9.50;;;1.90;;
22388;SDS011;11362;48.102;11.620;2023-03-14T15:45:46;16.40;;;2.73;;
22388;SDS011;11362;48.102;11.620;2023-03-14T15:48:12;11.83;;;2.33;;
22388;SDS011;11362;48.102;11.620;2023-03-14T15:50:40;11.63;;;2.43;;